< Typhoon 197919 1979 Season Typhoon 197921 >
Typhoon 197920 (TIP)
General InformationTrack Information on Google MapsDetailed Wind InformationList of All Images || NewsDisaster Info.ResourceGoogle EarthGE AnimationAtom FeedGeoJSON
Detalied Best Track (Time Zone = UTC)
Year Month Day Hour Lat. Long. Pressure (hPa) Wind (kt) Class Image Chart
1979 10 4 06 6.2 152.9 1004 0 2 Image Chart
1979 10 4 12 5.9 153.5 1004 0 2 Image Chart
1979 10 4 18 5.6 153.9 1004 0 2 Image Chart
1979 10 5 00 5.5 154.4 1004 0 2 Image Chart
1979 10 5 06 5.6 155.4 1004 0 2 Image Chart
1979 10 5 12 6.1 154.4 1002 0 2 Image Chart
1979 10 5 18 6.9 153.7 1002 0 2 Image Chart
1979 10 6 00 7.3 153.3 1000 0 2 Image Chart
1979 10 6 06 7.5 153.1 996 35 3 Image Chart
1979 10 6 12 7.7 152.9 996 35 3 Image Chart
1979 10 6 18 7.8 152.7 996 40 3 Image Chart
1979 10 7 00 7.7 152.3 996 40 3 Image Chart
1979 10 7 06 7.0 152.3 996 40 3 Image Chart
1979 10 7 12 6.3 151.8 996 40 3 Image Chart
1979 10 7 18 6.6 151.9 996 40 3 Image Chart
1979 10 8 00 7.8 151.9 992 40 3 Image Chart
1979 10 8 06 8.8 151.6 992 45 3 Image Chart
1979 10 8 12 9.8 150.5 992 45 3 Image Chart
1979 10 8 18 11.2 149.5 990 50 4 Image Chart
1979 10 9 00 12.2 147.7 990 50 4 Image Chart
1979 10 9 06 12.7 145.8 980 55 4 Image Chart
1979 10 9 12 12.8 144.3 975 60 4 Image Chart
1979 10 9 18 12.9 143.5 965 65 5 Image Chart
1979 10 10 00 13.0 142.6 955 80 5 Image Chart
1979 10 10 06 13.3 141.8 950 85 5 Image Chart
1979 10 10 12 13.8 141.0 940 90 5 Image Chart
1979 10 10 18 14.0 140.3 920 90 5 Image Chart
1979 10 11 00 14.2 139.3 900 130 5 Image Chart
1979 10 11 06 14.5 139.3 900 130 5 Image Chart
1979 10 11 12 15.1 139.3 900 130 5 Image Chart
1979 10 11 18 16.0 138.8 895 120 5 Image Chart
1979 10 12 00 16.5 138.1 875 120 5 Image Chart
1979 10 12 06 16.8 137.6 870 140 5 Image Chart
1979 10 12 12 16.9 137.0 890 125 5 Image Chart
1979 10 12 18 16.9 136.8 900 125 5 Image Chart
1979 10 13 00 16.7 136.2 905 110 5 Image Chart
1979 10 13 06 16.7 135.8 905 110 5 Image Chart
1979 10 13 12 16.8 135.2 910 110 5 Image Chart
1979 10 13 18 16.9 134.6 915 110 5 Image Chart
1979 10 14 00 17.0 134.0 920 100 5 Image Chart
1979 10 14 06 17.2 133.4 920 100 5 Image Chart
1979 10 14 12 17.4 132.6 920 100 5 Image Chart
1979 10 14 18 17.8 131.8 920 100 5 Image Chart
1979 10 15 00 18.0 130.9 920 100 5 Image Chart
1979 10 15 06 18.4 130.4 920 100 5 Image Chart
1979 10 15 12 18.6 129.9 920 100 5 Image Chart
1979 10 15 18 18.9 129.4 925 100 5 Image Chart
1979 10 16 00 19.5 129.4 925 95 5 Image Chart
1979 10 16 06 19.9 129.0 925 95 5 Image Chart
1979 10 16 12 20.4 128.7 930 95 5 Image Chart
1979 10 16 18 20.9 128.4 930 95 5 Image Chart
1979 10 17 00 21.4 128.2 935 95 5 Image Chart
1979 10 17 06 22.2 128.0 935 95 5 Image Chart
1979 10 17 12 23.1 127.8 940 90 5 Image Chart
1979 10 17 18 24.0 127.6 940 90 5 Image Chart
1979 10 18 00 25.0 127.9 945 90 5 Image Chart
1979 10 18 06 26.6 128.7 950 90 5 Image Chart
1979 10 18 12 28.5 130.1 955 80 5 Image Chart
1979 10 18 18 30.4 132.0 960 70 5 Image Chart
1979 10 19 00 33.5 135.0 965 70 5 Image Chart
1979 10 19 06 37.3 139.2 968 70 5 Image Chart
1979 10 19 12 41.6 143.0 965 70 5 Image Chart
1979 10 19 18 45.0 146.0 956 0 6 Image Chart
1979 10 20 00 46.0 148.5 952 0 6 Image Chart
1979 10 20 06 47.0 151.0 950 0 6 Image Chart
1979 10 20 12 48.5 154.0 952 0 6 Image Chart
1979 10 20 18 50.0 158.0 956 0 6 Image Chart
1979 10 21 00 52.0 162.0 964 0 6 Image Chart
1979 10 21 06 53.0 166.0 970 0 6 Image Chart
1979 10 21 12 54.0 170.0 976 0 6 Image Chart
1979 10 21 18 54.0 175.0 982 0 6 Image Chart
1979 10 22 00 54.0 180.0 988 0 6 Image Chart
1979 10 22 06 53.0 187.0 992 0 6 Image Chart
Japan Meteorological Agency Best Track Data | Correction Date : 1992-10-21
< Typhoon 197919 1979 Season Typhoon 197921 >

Help